createdAt,value
2023-01-30T00:00:12.029Z,-0.50
2023-01-30T00:00:56.307Z,-0.62
2023-01-30T00:01:38.768Z,-0.51
2023-01-30T00:02:20.496Z,-0.51
2023-01-30T00:03:02.508Z,-0.66
2023-01-30T00:03:44.519Z,-0.52
2023-01-30T00:04:26.272Z,-0.54
2023-01-30T00:05:08.445Z,-0.56
2023-01-30T00:05:50.655Z,-0.68
2023-01-30T00:06:32.774Z,-0.54
2023-01-30T00:07:14.431Z,-0.55
2023-01-30T00:07:59.121Z,-0.63
2023-01-30T00:08:43.235Z,-0.61
2023-01-30T00:09:27.036Z,-0.58
2023-01-30T00:10:09.473Z,-0.93
2023-01-30T00:10:51.239Z,-0.61
2023-01-30T00:11:33.375Z,-0.66
2023-01-30T00:12:15.039Z,-0.63
2023-01-30T00:12:56.713Z,-0.69
2023-01-30T00:13:39.203Z,-0.67
2023-01-30T00:14:20.833Z,-0.81
2023-01-30T00:15:02.545Z,-0.62
2023-01-30T00:15:44.621Z,-0.62
2023-01-30T00:16:26.446Z,-0.59
2023-01-30T00:17:08.192Z,-0.58
2023-01-30T00:17:49.877Z,-0.59
2023-01-30T00:18:31.669Z,-0.59
2023-01-30T00:19:13.417Z,-0.59
2023-01-30T00:19:55.096Z,-0.81
2023-01-30T00:20:37.216Z,-0.60
2023-01-30T00:21:19.263Z,-0.64
2023-01-30T00:22:01.010Z,-0.72
2023-01-30T00:22:52.364Z,-0.62
2023-01-30T00:23:41.664Z,-0.60
2023-01-30T00:24:23.379Z,-0.65
2023-01-30T00:25:05.732Z,-0.59
2023-01-30T00:25:47.556Z,-0.68
2023-01-30T00:26:29.440Z,-0.74
2023-01-30T00:27:11.080Z,-0.68
2023-01-30T00:27:52.784Z,-0.59
2023-01-30T00:28:34.514Z,-0.61
2023-01-30T00:29:18.784Z,-0.58
2023-01-30T00:30:03.529Z,-0.59
2023-01-30T00:30:50.289Z,-0.77
2023-01-30T00:31:31.980Z,-0.60
2023-01-30T00:32:13.643Z,-0.73
2023-01-30T00:32:56.876Z,-0.72
2023-01-30T00:33:39.656Z,-0.66
2023-01-30T00:34:21.413Z,-0.61
2023-01-30T00:35:03.281Z,-0.62
2023-01-30T00:35:46.083Z,-0.68
2023-01-30T00:36:28.586Z,-0.67
2023-01-30T00:37:10.209Z,-0.65
2023-01-30T00:37:51.893Z,-0.68
2023-01-30T00:38:33.761Z,-0.86
2023-01-30T00:39:15.446Z,-0.86
2023-01-30T00:39:57.053Z,-0.86
2023-01-30T00:40:42.020Z,-0.70
2023-01-30T00:41:23.655Z,-0.74
2023-01-30T00:42:23.887Z,-0.72
2023-01-30T00:43:25.035Z,-0.72
2023-01-30T00:44:25.183Z,-0.85
2023-01-30T00:45:29.679Z,-0.77
2023-01-30T00:46:41.466Z,-0.93
2023-01-30T00:47:23.374Z,-0.85
2023-01-30T00:48:08.389Z,-0.70
2023-01-30T00:48:50.114Z,-0.69
2023-01-30T00:49:32.779Z,-0.69
2023-01-30T00:50:15.110Z,-0.70
2023-01-30T00:50:58.539Z,-0.80
2023-01-30T00:51:40.251Z,-0.76
2023-01-30T00:52:21.903Z,-0.62
2023-01-30T00:53:03.647Z,-0.59
2023-01-30T00:53:45.297Z,-0.59
2023-01-30T00:54:29.062Z,-0.51
2023-01-30T00:55:10.918Z,-0.46
2023-01-30T00:55:53.756Z,-0.44
2023-01-30T00:56:35.412Z,-0.59
2023-01-30T00:57:18.233Z,-0.43
2023-01-30T00:58:00.178Z,-0.59
2023-01-30T00:58:41.881Z,-0.41
2023-01-30T00:59:27.521Z,-0.47
2023-01-30T01:00:09.799Z,-0.35
2023-01-30T01:00:51.770Z,-0.44
2023-01-30T01:01:33.493Z,-0.31
2023-01-30T01:02:15.159Z,-0.51
2023-01-30T01:02:56.883Z,-0.40
2023-01-30T01:03:38.505Z,-0.22
2023-01-30T01:04:20.370Z,-0.27
2023-01-30T01:05:03.603Z,-0.18
2023-01-30T01:05:46.444Z,-0.22
2023-01-30T01:06:29.018Z,-0.15
2023-01-30T01:07:12.972Z,-0.10
2023-01-30T01:07:55.299Z,-0.23
2023-01-30T01:08:38.499Z,-0.02
2023-01-30T01:09:20.158Z,0.01
2023-01-30T01:10:01.764Z,-0.05
2023-01-30T01:10:43.799Z,0.06
2023-01-30T01:11:25.531Z,0.14
2023-01-30T01:12:07.962Z,0.08
2023-01-30T01:12:52.269Z,0.19
2023-01-30T01:13:34.114Z,0.22
2023-01-30T01:14:15.836Z,0.23
2023-01-30T01:14:57.501Z,0.07
2023-01-30T01:15:39.458Z,0.26
2023-01-30T01:16:21.531Z,0.25
2023-01-30T01:17:03.345Z,0.24
2023-01-30T01:17:45.070Z,0.34
2023-01-30T01:18:26.873Z,0.21
2023-01-30T01:19:08.545Z,0.40
2023-01-30T01:19:50.249Z,0.28
2023-01-30T01:20:31.952Z,0.43
2023-01-30T01:21:13.716Z,0.37
2023-01-30T01:21:55.396Z,0.44
2023-01-30T01:22:37.095Z,0.11
2023-01-30T01:23:18.739Z,0.29
2023-01-30T01:24:01.120Z,0.30
2023-01-30T01:24:42.877Z,0.46
2023-01-30T01:25:25.747Z,0.54
2023-01-30T01:26:07.612Z,0.51
2023-01-30T01:26:49.624Z,0.50
2023-01-30T01:27:31.381Z,0.58
2023-01-30T01:28:13.005Z,0.55
2023-01-30T01:28:58.880Z,0.57
2023-01-30T01:29:40.560Z,0.55
2023-01-30T01:30:22.743Z,0.72
2023-01-30T01:31:12.403Z,0.75
2023-01-30T01:31:54.202Z,0.51
2023-01-30T01:32:37.626Z,0.45
2023-01-30T01:33:19.284Z,0.50
2023-01-30T01:34:00.978Z,0.57
2023-01-30T01:34:42.651Z,0.50
2023-01-30T01:35:24.268Z,0.41
2023-01-30T01:36:07.160Z,0.55
2023-01-30T01:36:53.799Z,0.49
2023-01-30T01:37:35.824Z,0.56
2023-01-30T01:38:17.540Z,0.55
2023-01-30T01:38:59.239Z,0.52
2023-01-30T01:39:59.506Z,0.53
2023-01-30T01:41:07.372Z,0.53
2023-01-30T01:41:49.992Z,0.54
2023-01-30T01:42:35.867Z,0.54
2023-01-30T01:43:22.770Z,0.52
2023-01-30T01:44:09.258Z,0.51
2023-01-30T01:45:02.918Z,0.52
2023-01-30T01:45:46.852Z,0.43
2023-01-30T01:46:40.005Z,0.53
2023-01-30T01:47:21.693Z,0.54
2023-01-30T01:48:15.813Z,0.55
2023-01-30T01:49:00.289Z,0.55
2023-01-30T01:49:42.679Z,0.58
2023-01-30T01:50:39.646Z,0.74
2023-01-30T01:51:28.136Z,0.71
2023-01-30T01:52:15.845Z,0.60
2023-01-30T01:53:00.795Z,0.54
2023-01-30T01:53:49.130Z,0.50
2023-01-30T01:54:42.148Z,0.62
2023-01-30T01:55:25.177Z,0.56
2023-01-30T01:56:07.838Z,0.45
2023-01-30T01:56:50.503Z,0.45
2023-01-30T01:57:38.939Z,0.46
2023-01-30T01:58:44.994Z,0.58
2023-01-30T01:59:32.402Z,0.49
2023-01-30T02:00:17.290Z,0.56
2023-01-30T02:01:00.124Z,0.43
2023-01-30T02:01:41.836Z,0.38
2023-01-30T02:02:23.939Z,0.50
2023-01-30T02:03:11.415Z,0.48
2023-01-30T02:03:58.819Z,0.51
2023-01-30T02:05:03.907Z,0.32
2023-01-30T02:05:50.616Z,0.51
2023-01-30T02:06:32.778Z,0.54
2023-01-30T02:07:18.588Z,0.47
2023-01-30T02:08:08.155Z,0.57
2023-01-30T02:09:00.648Z,0.64
2023-01-30T02:09:42.786Z,0.63
2023-01-30T02:10:40.012Z,0.50
2023-01-30T02:11:49.780Z,0.64
2023-01-30T02:12:31.409Z,0.62
2023-01-30T02:13:13.075Z,0.55
2023-01-30T02:13:56.938Z,0.40
2023-01-30T02:14:39.976Z,0.57
2023-01-30T02:15:21.824Z,0.48
2023-01-30T02:16:06.237Z,0.65
2023-01-30T02:16:48.026Z,0.67
2023-01-30T02:17:29.749Z,0.71
2023-01-30T02:18:13.395Z,0.76
2023-01-30T02:18:55.637Z,0.81
2023-01-30T02:20:00.883Z,0.80
2023-01-30T02:20:48.379Z,0.84
2023-01-30T02:21:57.961Z,0.87
2023-01-30T02:23:22.319Z,0.85
2023-01-30T02:24:18.810Z,0.86
2023-01-30T02:25:38.209Z,0.89
2023-01-30T02:26:56.654Z,0.92
2023-01-30T02:27:52.235Z,0.98
2023-01-30T02:29:23.712Z,0.96
2023-01-30T02:30:23.689Z,1.00
2023-01-30T02:31:50.016Z,1.01
2023-01-30T02:32:38.366Z,1.00
2023-01-30T02:33:47.819Z,1.07
2023-01-30T02:34:49.939Z,1.15
2023-01-30T02:35:39.103Z,1.04
2023-01-30T02:36:46.122Z,1.14
2023-01-30T02:37:44.558Z,1.17
2023-01-30T02:38:48.598Z,1.14
2023-01-30T02:39:44.803Z,1.03
2023-01-30T02:40:47.646Z,1.08
2023-01-30T02:41:36.220Z,1.10
2023-01-30T02:42:27.984Z,0.98
2023-01-30T02:43:24.763Z,1.19
2023-01-30T02:44:27.822Z,0.90
2023-01-30T02:45:21.942Z,0.96
2023-01-30T02:46:22.559Z,0.80
2023-01-30T02:47:25.091Z,0.77
2023-01-30T02:48:16.288Z,0.75
2023-01-30T02:49:05.006Z,0.67
2023-01-30T02:49:54.807Z,0.62
2023-01-30T02:50:53.609Z,0.76
2023-01-30T02:51:38.844Z,0.67
2023-01-30T02:52:22.604Z,0.70
2023-01-30T02:53:07.881Z,0.68
2023-01-30T02:53:50.727Z,0.66
2023-01-30T02:54:33.111Z,0.66
2023-01-30T02:55:20.380Z,0.65
2023-01-30T02:56:02.244Z,0.56
2023-01-30T02:56:46.832Z,0.59
2023-01-30T02:57:28.441Z,0.61
2023-01-30T02:58:17.955Z,0.64
2023-01-30T02:59:06.165Z,0.62
2023-01-30T02:59:54.888Z,0.64
2023-01-30T03:00:55.811Z,0.85
2023-01-30T03:01:48.499Z,0.86
2023-01-30T03:03:08.492Z,0.83
2023-01-30T03:04:04.048Z,0.81
2023-01-30T03:04:55.057Z,0.66
2023-01-30T03:05:39.378Z,0.81
2023-01-30T03:06:50.103Z,0.84
2023-01-30T03:07:43.730Z,0.91
2023-01-30T03:08:40.700Z,0.74
2023-01-30T03:09:40.096Z,0.72
2023-01-30T03:10:52.166Z,0.91
2023-01-30T03:12:14.815Z,0.93
2023-01-30T03:13:11.659Z,0.65
2023-01-30T03:14:07.977Z,0.88
2023-01-30T03:14:56.189Z,0.81
2023-01-30T03:15:53.514Z,0.81
2023-01-30T03:16:39.046Z,0.79
2023-01-30T03:17:24.069Z,0.85
2023-01-30T03:18:08.598Z,0.75
2023-01-30T03:18:50.617Z,0.88
2023-01-30T03:19:32.387Z,0.85
2023-01-30T03:20:19.627Z,0.83
2023-01-30T03:21:06.186Z,0.75
2023-01-30T03:21:47.889Z,0.63
2023-01-30T03:22:29.684Z,0.73
2023-01-30T03:23:11.788Z,0.54
2023-01-30T03:23:53.565Z,0.67
2023-01-30T03:24:35.376Z,0.59
2023-01-30T03:25:23.308Z,0.66
2023-01-30T03:26:08.234Z,0.67
2023-01-30T03:27:11.949Z,0.66
2023-01-30T03:27:55.463Z,0.64
2023-01-30T03:28:38.689Z,0.54
2023-01-30T03:29:20.387Z,0.57
2023-01-30T03:30:02.125Z,0.56
2023-01-30T03:30:44.480Z,0.45
2023-01-30T03:31:26.258Z,0.53
2023-01-30T03:32:08.033Z,0.52
2023-01-30T03:32:49.768Z,0.50
2023-01-30T03:33:31.515Z,0.51
2023-01-30T03:34:13.785Z,0.47
2023-01-30T03:34:55.784Z,0.55
2023-01-30T03:35:37.540Z,0.54
2023-01-30T03:36:19.758Z,0.52
2023-01-30T03:37:02.083Z,0.48
2023-01-30T03:37:45.545Z,0.48
2023-01-30T03:38:27.683Z,0.47
2023-01-30T03:39:09.894Z,0.47
2023-01-30T03:39:51.549Z,0.46
2023-01-30T03:40:33.341Z,0.36
2023-01-30T03:41:15.344Z,0.39
2023-01-30T03:41:57.159Z,0.33
2023-01-30T03:42:39.042Z,0.30
2023-01-30T03:43:20.685Z,0.34
2023-01-30T03:44:02.361Z,0.29
2023-01-30T03:44:44.135Z,0.24
2023-01-30T03:45:25.805Z,0.34
2023-01-30T03:46:08.110Z,0.33
2023-01-30T03:46:49.786Z,0.31
2023-01-30T03:47:31.422Z,0.25
2023-01-30T03:48:13.095Z,0.12
2023-01-30T03:48:54.807Z,0.10
2023-01-30T03:49:36.693Z,0.22
2023-01-30T03:50:18.473Z,0.12
2023-01-30T03:51:00.808Z,0.18
2023-01-30T03:51:42.537Z,0.06
2023-01-30T03:52:24.324Z,0.26
2023-01-30T03:53:06.004Z,0.28
2023-01-30T03:53:47.695Z,0.11
2023-01-30T03:54:29.368Z,0.24
2023-01-30T03:55:11.558Z,0.25
2023-01-30T03:55:53.222Z,0.22
2023-01-30T03:56:39.969Z,0.24
2023-01-30T03:57:22.337Z,0.23
2023-01-30T03:58:04.131Z,-0.49
2023-01-30T03:58:47.774Z,0.21
2023-01-30T03:59:35.597Z,0.17
2023-01-30T04:00:22.340Z,0.20
2023-01-30T04:01:05.964Z,0.20
2023-01-30T04:01:47.687Z,0.23
2023-01-30T04:02:29.714Z,0.14
2023-01-30T04:03:13.496Z,0.16
2023-01-30T04:03:55.180Z,0.05
2023-01-30T04:04:36.899Z,0.10
2023-01-30T04:05:21.120Z,0.11
2023-01-30T04:06:10.081Z,0.07
2023-01-30T04:06:52.168Z,0.11
2023-01-30T04:07:34.105Z,-0.08
2023-01-30T04:08:15.799Z,0.06
2023-01-30T04:08:57.520Z,-0.08
2023-01-30T04:10:08.710Z,-0.07
2023-01-30T04:10:51.556Z,0.03
2023-01-30T04:11:33.242Z,-0.06
2023-01-30T04:12:15.162Z,-0.09
2023-01-30T04:13:05.205Z,-0.19
2023-01-30T04:13:47.433Z,0.05
2023-01-30T04:14:29.517Z,0.03
2023-01-30T04:15:35.218Z,0.09
2023-01-30T04:16:48.992Z,0.12
2023-01-30T04:18:09.113Z,-0.07
2023-01-30T04:19:05.661Z,0.07
2023-01-30T04:19:48.193Z,-0.03
2023-01-30T04:20:29.834Z,0.02
2023-01-30T04:21:13.108Z,0.12
2023-01-30T04:21:54.829Z,0.10
2023-01-30T04:22:36.663Z,0.01
2023-01-30T04:23:18.611Z,0.08
2023-01-30T04:24:00.532Z,0.06
2023-01-30T04:24:42.548Z,0.09
2023-01-30T04:25:24.713Z,0.08
2023-01-30T04:26:07.591Z,0.01
2023-01-30T04:26:52.284Z,-0.05
2023-01-30T04:27:34.082Z,0.09
2023-01-30T04:28:36.647Z,0.11
2023-01-30T04:29:18.456Z,-0.04
2023-01-30T04:30:03.347Z,0.12
2023-01-30T04:30:45.138Z,0.06
2023-01-30T04:31:49.327Z,0.16
2023-01-30T04:32:37.376Z,-0.01
2023-01-30T04:33:19.160Z,0.16
2023-01-30T04:34:00.850Z,0.16
2023-01-30T04:34:43.888Z,0.16
2023-01-30T04:35:25.739Z,0.15
2023-01-30T04:36:08.869Z,0.13
2023-01-30T04:36:50.584Z,0.08
2023-01-30T04:37:32.613Z,0.14
2023-01-30T04:38:14.412Z,0.14
2023-01-30T04:38:59.174Z,0.14
2023-01-30T04:39:42.461Z,-0.30
2023-01-30T04:40:24.201Z,0.13
2023-01-30T04:41:06.076Z,0.13
2023-01-30T04:41:50.101Z,0.14
2023-01-30T04:42:31.848Z,0.00
2023-01-30T04:43:39.731Z,0.21
2023-01-30T04:44:24.189Z,0.21
2023-01-30T04:45:22.922Z,0.27
2023-01-30T04:46:05.765Z,0.28
2023-01-30T04:46:47.470Z,0.24
2023-01-30T04:47:30.016Z,0.19
2023-01-30T04:48:12.419Z,0.26
2023-01-30T04:48:54.573Z,0.21
2023-01-30T04:49:36.211Z,0.25
2023-01-30T04:50:18.637Z,0.25
2023-01-30T04:51:00.255Z,0.28
2023-01-30T04:51:41.974Z,0.26
2023-01-30T04:52:24.199Z,0.06
2023-01-30T04:53:07.332Z,0.16
2023-01-30T04:53:49.635Z,0.33
2023-01-30T04:54:31.321Z,0.35
2023-01-30T04:55:13.289Z,0.35
2023-01-30T04:55:55.414Z,0.31
2023-01-30T04:56:37.082Z,0.28
2023-01-30T04:57:20.082Z,0.28
2023-01-30T04:58:01.797Z,0.23
2023-01-30T04:58:43.470Z,0.26
2023-01-30T04:59:25.705Z,0.27
2023-01-30T05:00:08.610Z,0.31
2023-01-30T05:00:53.468Z,0.32
2023-01-30T05:01:38.240Z,0.22
2023-01-30T05:02:21.276Z,0.25
2023-01-30T05:03:06.478Z,0.19
2023-01-30T05:03:55.154Z,0.23
2023-01-30T05:04:36.757Z,0.24
2023-01-30T05:05:18.752Z,0.24
2023-01-30T05:06:00.732Z,0.11
2023-01-30T05:06:42.409Z,0.29
2023-01-30T05:07:24.045Z,0.32
2023-01-30T05:08:05.717Z,0.36
2023-01-30T05:08:51.778Z,0.48
2023-01-30T05:09:33.460Z,0.52
2023-01-30T05:10:15.803Z,0.65
2023-01-30T05:10:58.090Z,0.50
2023-01-30T05:11:39.794Z,0.48
2023-01-30T05:12:21.485Z,0.73
2023-01-30T05:13:06.547Z,0.71
2023-01-30T05:13:48.336Z,0.82
2023-01-30T05:14:30.065Z,0.80
2023-01-30T05:15:12.934Z,0.76
2023-01-30T05:15:54.678Z,0.62
2023-01-30T05:16:36.323Z,0.72
2023-01-30T05:17:18.028Z,0.79
2023-01-30T05:18:00.153Z,0.78
2023-01-30T05:18:42.295Z,0.84
2023-01-30T05:19:23.907Z,0.85
2023-01-30T05:20:07.692Z,0.82
2023-01-30T05:20:49.360Z,0.60
2023-01-30T05:21:30.998Z,0.74
2023-01-30T05:22:12.658Z,0.48
2023-01-30T05:22:54.425Z,0.62
2023-01-30T05:23:36.106Z,0.79
2023-01-30T05:24:17.726Z,0.77
2023-01-30T05:24:59.361Z,0.76
2023-01-30T05:25:40.989Z,0.77
2023-01-30T05:26:23.583Z,0.83
2023-01-30T05:27:05.285Z,0.86
2023-01-30T05:27:46.953Z,0.91
2023-01-30T05:28:29.257Z,0.75
2023-01-30T05:29:11.171Z,0.84
2023-01-30T05:29:52.868Z,0.87
2023-01-30T05:30:34.677Z,0.77
2023-01-30T05:31:16.379Z,0.83
2023-01-30T05:31:58.106Z,0.89
2023-01-30T05:32:39.866Z,0.91
2023-01-30T05:33:21.534Z,0.93
2023-01-30T05:34:03.160Z,0.91
2023-01-30T05:34:45.145Z,0.81
2023-01-30T05:35:26.722Z,0.92
2023-01-30T05:36:15.022Z,0.90
2023-01-30T05:36:56.631Z,0.86
2023-01-30T05:37:38.293Z,0.80
2023-01-30T05:38:19.909Z,0.84
2023-01-30T05:39:01.567Z,0.71
2023-01-30T05:39:43.178Z,0.79
2023-01-30T05:40:24.949Z,0.58
2023-01-30T05:41:08.320Z,0.71
2023-01-30T05:41:50.095Z,0.50
2023-01-30T05:42:31.727Z,0.65
2023-01-30T05:43:13.386Z,0.57
2023-01-30T05:43:55.021Z,0.66
2023-01-30T05:44:36.846Z,0.67
2023-01-30T05:45:18.803Z,0.68
2023-01-30T05:46:03.582Z,0.66
2023-01-30T05:46:45.227Z,0.63
2023-01-30T05:47:27.052Z,0.62
2023-01-30T05:48:08.678Z,0.59
2023-01-30T05:48:50.335Z,0.64
2023-01-30T05:49:31.976Z,0.59
2023-01-30T05:50:13.804Z,0.52
2023-01-30T05:50:58.136Z,0.58
2023-01-30T05:51:39.745Z,0.64
2023-01-30T05:52:21.519Z,0.53
2023-01-30T05:53:03.214Z,0.59
2023-01-30T05:53:45.229Z,0.68
2023-01-30T05:54:26.900Z,0.70
2023-01-30T05:55:09.082Z,0.68
2023-01-30T05:56:01.113Z,0.68
2023-01-30T05:56:42.780Z,0.66
2023-01-30T05:57:24.603Z,0.82
2023-01-30T05:58:06.297Z,0.72
2023-01-30T05:58:56.048Z,0.76
2023-01-30T05:59:37.681Z,0.77
2023-01-30T06:00:19.867Z,0.78
2023-01-30T06:01:09.509Z,0.79
2023-01-30T06:01:51.244Z,0.85
2023-01-30T06:02:32.899Z,0.77
2023-01-30T06:03:14.546Z,0.63
2023-01-30T06:03:57.943Z,0.79
2023-01-30T06:04:39.740Z,0.63
2023-01-30T06:05:21.639Z,0.67
2023-01-30T06:06:05.530Z,0.89
2023-01-30T06:06:50.445Z,0.92
2023-01-30T06:07:32.342Z,0.90
2023-01-30T06:08:14.021Z,0.82
2023-01-30T06:08:56.792Z,0.85
2023-01-30T06:09:38.452Z,0.64
2023-01-30T06:10:20.116Z,0.71
2023-01-30T06:11:07.209Z,0.73
2023-01-30T06:11:48.970Z,0.69
2023-01-30T06:12:30.620Z,0.57
2023-01-30T06:13:12.316Z,0.66
2023-01-30T06:13:54.366Z,0.66
2023-01-30T06:14:35.982Z,0.68
2023-01-30T06:15:17.813Z,0.57
2023-01-30T06:16:01.033Z,0.67
2023-01-30T06:16:42.770Z,0.55
2023-01-30T06:17:24.463Z,0.62
2023-01-30T06:18:06.144Z,0.60
2023-01-30T06:18:47.806Z,0.47
2023-01-30T06:19:29.438Z,0.54
2023-01-30T06:20:11.711Z,0.55
2023-01-30T06:20:54.227Z,0.39
2023-01-30T06:21:35.860Z,0.52
2023-01-30T06:22:17.534Z,0.45
2023-01-30T06:22:59.184Z,0.47
2023-01-30T06:23:41.735Z,0.51
2023-01-30T06:24:23.499Z,0.27
2023-01-30T06:25:06.091Z,0.46
2023-01-30T06:25:48.998Z,0.44
2023-01-30T06:26:30.788Z,0.47
2023-01-30T06:27:14.235Z,0.47
2023-01-30T06:27:55.898Z,0.37
2023-01-30T06:28:37.764Z,0.48
2023-01-30T06:29:19.380Z,0.47
2023-01-30T06:30:01.017Z,0.47
2023-01-30T06:30:43.266Z,0.37
2023-01-30T06:31:25.023Z,0.39
2023-01-30T06:32:06.789Z,0.32
2023-01-30T06:32:51.775Z,0.18
2023-01-30T06:33:33.453Z,0.24
2023-01-30T06:34:15.076Z,0.42
2023-01-30T06:34:56.686Z,0.45
2023-01-30T06:35:39.323Z,0.46
2023-01-30T06:36:20.994Z,0.32
2023-01-30T06:37:02.723Z,0.22
2023-01-30T06:37:45.774Z,0.43
2023-01-30T06:38:27.473Z,0.46
2023-01-30T06:39:09.291Z,0.11
2023-01-30T06:39:50.977Z,0.45
2023-01-30T06:40:32.834Z,0.42
2023-01-30T06:41:14.472Z,0.48
2023-01-30T06:41:56.214Z,0.51
2023-01-30T06:42:47.800Z,0.53
2023-01-30T06:43:29.526Z,0.54
2023-01-30T06:44:11.315Z,0.51
2023-01-30T06:44:52.942Z,0.49
2023-01-30T06:45:34.684Z,0.49
2023-01-30T06:46:16.455Z,0.48
2023-01-30T06:46:58.172Z,0.47
2023-01-30T06:47:45.670Z,0.46
2023-01-30T06:48:27.600Z,0.46
2023-01-30T06:49:09.245Z,0.35
2023-01-30T06:49:50.906Z,0.48
2023-01-30T06:50:32.770Z,0.25
2023-01-30T06:51:14.414Z,0.46
2023-01-30T06:51:56.071Z,0.45
2023-01-30T06:52:42.089Z,0.45
2023-01-30T06:53:30.035Z,0.24
2023-01-30T06:54:11.697Z,0.46
2023-01-30T06:54:53.413Z,0.48
2023-01-30T06:55:36.340Z,0.49
2023-01-30T06:56:17.979Z,0.51
2023-01-30T06:56:59.645Z,0.42
2023-01-30T06:57:42.054Z,0.51
2023-01-30T06:58:23.705Z,0.47
2023-01-30T06:59:05.356Z,0.53
2023-01-30T06:59:46.967Z,0.55
2023-01-30T07:00:28.681Z,0.56
2023-01-30T07:01:10.370Z,0.36
2023-01-30T07:01:52.303Z,0.51
2023-01-30T07:02:35.407Z,0.54
2023-01-30T07:03:18.438Z,0.39
2023-01-30T07:04:00.190Z,0.44
2023-01-30T07:04:41.938Z,0.44
2023-01-30T07:05:23.562Z,0.52
2023-01-30T07:06:05.363Z,0.48
2023-01-30T07:06:47.111Z,0.48
2023-01-30T07:07:29.864Z,0.48
2023-01-30T07:08:12.472Z,0.50
2023-01-30T07:08:56.271Z,0.43
2023-01-30T07:09:38.068Z,0.48
2023-01-30T07:10:19.748Z,0.59
2023-01-30T07:11:01.493Z,0.56
2023-01-30T07:11:43.114Z,0.54
2023-01-30T07:12:26.095Z,0.54
2023-01-30T07:13:07.790Z,0.53
2023-01-30T07:13:49.613Z,0.47
2023-01-30T07:14:31.310Z,0.34
2023-01-30T07:15:13.273Z,0.55
2023-01-30T07:15:55.029Z,0.54
2023-01-30T07:16:36.735Z,0.53
2023-01-30T07:17:18.728Z,0.57
2023-01-30T07:18:01.695Z,0.44
2023-01-30T07:18:43.492Z,0.46
2023-01-30T07:19:25.160Z,0.60
2023-01-30T07:20:07.680Z,0.60
2023-01-30T07:20:50.261Z,0.61
2023-01-30T07:21:31.958Z,0.49
2023-01-30T07:22:13.722Z,0.65
2023-01-30T07:22:56.168Z,0.66
2023-01-30T07:23:37.902Z,0.58
2023-01-30T07:24:19.657Z,0.49
2023-01-30T07:25:01.412Z,0.66
2023-01-30T07:25:43.269Z,0.57
2023-01-30T07:26:25.357Z,0.62
2023-01-30T07:27:10.395Z,0.63
2023-01-30T07:27:53.861Z,0.64
2023-01-30T07:28:36.917Z,0.65
2023-01-30T07:29:18.663Z,0.65
2023-01-30T07:30:00.332Z,0.66
2023-01-30T07:30:42.026Z,0.67
2023-01-30T07:31:23.896Z,0.63
2023-01-30T07:32:06.748Z,0.73
2023-01-30T07:32:57.778Z,0.77
2023-01-30T07:33:39.675Z,0.68
2023-01-30T07:34:21.480Z,0.73
2023-01-30T07:35:05.780Z,0.63
2023-01-30T07:35:47.763Z,0.68
2023-01-30T07:36:29.521Z,0.66
2023-01-30T07:37:11.192Z,0.65
2023-01-30T07:37:53.021Z,0.45
2023-01-30T07:38:34.710Z,0.59
2023-01-30T07:39:16.347Z,0.65
2023-01-30T07:39:58.291Z,0.64
2023-01-30T07:40:39.913Z,0.62
2023-01-30T07:41:21.669Z,0.45
2023-01-30T07:42:04.345Z,0.43
2023-01-30T07:42:59.994Z,0.57
2023-01-30T07:43:41.660Z,0.67
2023-01-30T07:44:23.329Z,0.66
2023-01-30T07:45:05.728Z,0.65
2023-01-30T07:45:48.612Z,0.68
2023-01-30T07:46:35.077Z,0.67
2023-01-30T07:47:19.349Z,0.67
2023-01-30T07:48:01.059Z,0.67
2023-01-30T07:48:46.937Z,0.37
2023-01-30T07:49:28.639Z,0.68
2023-01-30T07:50:10.913Z,0.59
2023-01-30T07:50:56.832Z,0.46
2023-01-30T07:51:38.511Z,0.58
2023-01-30T07:52:20.171Z,0.64
2023-01-30T07:53:10.242Z,0.63
2023-01-30T07:53:52.099Z,0.41
2023-01-30T07:54:33.844Z,0.64
2023-01-30T07:55:15.549Z,0.65
2023-01-30T07:55:57.304Z,0.65
2023-01-30T07:56:39.208Z,0.55
2023-01-30T07:57:20.840Z,0.46
2023-01-30T07:58:03.121Z,0.52
2023-01-30T07:58:45.017Z,0.69
2023-01-30T07:59:27.556Z,0.74
2023-01-30T08:00:10.855Z,0.68
2023-01-30T08:00:55.742Z,0.68
2023-01-30T08:01:37.686Z,0.64
2023-01-30T08:02:19.358Z,0.75
2023-01-30T08:03:01.038Z,0.64
2023-01-30T08:03:44.609Z,0.74
2023-01-30T08:04:26.366Z,0.65
2023-01-30T08:05:10.029Z,0.58
2023-01-30T08:05:53.394Z,0.74
2023-01-30T08:06:39.545Z,0.65
2023-01-30T08:07:21.361Z,0.81
2023-01-30T08:08:03.082Z,0.77
2023-01-30T08:08:45.108Z,0.62
2023-01-30T08:09:26.839Z,0.72
2023-01-30T08:10:11.885Z,0.81
2023-01-30T08:10:53.963Z,0.84
2023-01-30T08:11:35.679Z,0.89
2023-01-30T08:12:17.370Z,0.97
2023-01-30T08:12:58.990Z,1.01
2023-01-30T08:13:40.946Z,1.00
2023-01-30T08:14:26.058Z,0.99
2023-01-30T08:15:09.343Z,0.77
2023-01-30T08:15:51.261Z,0.87
2023-01-30T08:16:34.094Z,1.09
2023-01-30T08:17:15.790Z,1.06
2023-01-30T08:17:57.932Z,1.00
2023-01-30T08:18:39.753Z,1.02
2023-01-30T08:19:21.510Z,1.02
2023-01-30T08:20:04.723Z,1.07
2023-01-30T08:20:46.521Z,0.95
2023-01-30T08:21:28.188Z,1.10
2023-01-30T08:22:10.011Z,1.14
2023-01-30T08:22:51.733Z,1.15
2023-01-30T08:23:34.457Z,1.25
2023-01-30T08:24:16.226Z,1.29
2023-01-30T08:24:57.929Z,1.14
2023-01-30T08:25:39.604Z,1.22
2023-01-30T08:26:21.348Z,1.19
2023-01-30T08:27:03.303Z,1.01
2023-01-30T08:27:44.978Z,1.14
2023-01-30T08:28:27.448Z,0.94
2023-01-30T08:29:09.148Z,1.03
2023-01-30T08:29:50.864Z,1.12
2023-01-30T08:30:32.653Z,1.06
2023-01-30T08:31:16.331Z,1.05
2023-01-30T08:31:58.967Z,0.91
2023-01-30T08:32:40.600Z,0.91
2023-01-30T08:33:23.326Z,1.04
2023-01-30T08:34:05.034Z,0.82
2023-01-30T08:34:46.681Z,0.94
2023-01-30T08:35:28.564Z,0.95
2023-01-30T08:36:10.591Z,1.02
2023-01-30T08:36:52.434Z,1.03
2023-01-30T08:37:34.186Z,0.96
2023-01-30T08:38:16.141Z,1.02
2023-01-30T08:38:57.842Z,0.94
2023-01-30T08:39:39.619Z,0.82
2023-01-30T08:40:21.505Z,1.04
2023-01-30T08:41:05.652Z,1.04
2023-01-30T08:41:47.294Z,1.08
2023-01-30T08:42:29.224Z,1.12
2023-01-30T08:43:10.992Z,1.06
2023-01-30T08:43:53.199Z,1.07
2023-01-30T08:44:34.893Z,1.15
2023-01-30T08:45:16.784Z,1.20
2023-01-30T08:45:58.632Z,1.19
2023-01-30T08:46:40.416Z,1.20
2023-01-30T08:47:22.222Z,1.18
2023-01-30T08:48:06.033Z,1.03
2023-01-30T08:49:51.439Z,1.17
2023-01-30T08:50:33.791Z,1.26
2023-01-30T08:51:15.513Z,1.09
2023-01-30T08:51:57.238Z,1.24
2023-01-30T08:52:41.369Z,1.17
2023-01-30T08:53:25.790Z,1.08
2023-01-30T08:54:09.134Z,1.15
2023-01-30T08:54:50.821Z,1.15
2023-01-30T08:55:33.088Z,1.23
2023-01-30T08:56:14.763Z,1.23
2023-01-30T08:56:59.273Z,1.24
2023-01-30T08:57:41.011Z,1.21
2023-01-30T08:58:22.809Z,1.29
2023-01-30T08:59:07.803Z,1.31
2023-01-30T08:59:51.277Z,1.26
2023-01-30T09:00:36.783Z,1.41
2023-01-30T09:01:21.305Z,1.49
2023-01-30T09:02:04.249Z,1.35
2023-01-30T09:02:53.048Z,1.44
2023-01-30T09:03:43.781Z,1.32
2023-01-30T09:04:26.521Z,1.41
2023-01-30T09:05:11.246Z,1.42
2023-01-30T09:05:59.025Z,1.25
2023-01-30T09:06:46.721Z,1.37
2023-01-30T09:07:31.742Z,1.17
2023-01-30T09:08:22.684Z,1.17
2023-01-30T09:09:04.475Z,1.11
2023-01-30T09:09:51.241Z,1.23
2023-01-30T09:10:32.982Z,1.11
2023-01-30T09:11:21.941Z,1.02
2023-01-30T09:12:15.539Z,1.09
2023-01-30T09:13:02.687Z,1.15
2023-01-30T09:13:44.640Z,1.18
2023-01-30T09:14:26.426Z,1.22
2023-01-30T09:15:08.936Z,0.94
2023-01-30T09:16:03.631Z,1.22
2023-01-30T09:16:55.398Z,1.21
2023-01-30T09:17:39.812Z,1.17
2023-01-30T09:18:21.459Z,1.15
2023-01-30T09:19:09.667Z,1.27
2023-01-30T09:19:51.351Z,1.14
2023-01-30T09:20:34.655Z,1.23
2023-01-30T09:21:17.891Z,1.10
2023-01-30T09:21:59.538Z,1.20
2023-01-30T09:22:41.271Z,1.08
2023-01-30T09:23:23.206Z,1.18
2023-01-30T09:24:05.510Z,1.11
2023-01-30T09:24:49.742Z,1.30
2023-01-30T09:25:32.564Z,1.18
2023-01-30T09:26:20.114Z,1.43
2023-01-30T09:27:02.169Z,1.25
2023-01-30T09:27:44.620Z,1.39
2023-01-30T09:28:28.954Z,1.41
2023-01-30T09:29:17.003Z,1.41
2023-01-30T09:30:09.467Z,1.28
2023-01-30T09:30:51.234Z,1.29
2023-01-30T09:31:34.904Z,1.38
2023-01-30T09:32:17.547Z,1.37
2023-01-30T09:33:06.746Z,1.25
2023-01-30T09:33:52.108Z,1.41
2023-01-30T09:34:36.969Z,1.37
2023-01-30T09:35:45.482Z,1.20
2023-01-30T09:36:28.332Z,1.35
2023-01-30T09:37:10.045Z,1.33
2023-01-30T09:37:53.422Z,1.31
2023-01-30T09:38:35.117Z,1.21
2023-01-30T09:39:22.463Z,1.31
2023-01-30T09:40:04.755Z,1.23
2023-01-30T09:41:14.200Z,1.31
2023-01-30T09:42:08.538Z,1.30
2023-01-30T09:43:22.596Z,1.31
2023-01-30T09:44:33.667Z,1.28
2023-01-30T09:46:05.077Z,1.33
2023-01-30T09:46:56.104Z,1.33
2023-01-30T09:48:01.721Z,1.32
2023-01-30T09:49:05.931Z,1.31
2023-01-30T09:50:29.482Z,1.33
2023-01-30T09:51:15.981Z,1.32
2023-01-30T09:52:08.713Z,1.41
2023-01-30T09:53:35.004Z,1.39
2023-01-30T09:54:29.436Z,1.41
2023-01-30T09:55:25.153Z,1.33
2023-01-30T09:56:18.318Z,1.36
2023-01-30T09:57:21.155Z,1.43
2023-01-30T09:58:08.226Z,1.22